Time;durP1;ratioP1;P1;durP2;ratioP2;P2;SDS_P1;SDS_P2;PMS_P1;PMS_P2;Temp;Humidity;BMP_temperature;BMP_pressure;BME280_temperature;BME280_humidity;BME280_pressure;Samples;Min_cycle;Max_cycle;Signal;HPM_P1;HPM_P2
2021/04/01 00:01:08;;;;;;;29.65;22.25;;;;;;;10.03;92.41;99361.52;1785468;79;21161;-54
2021/04/01 00:03:37;;;;;;;25.90;22.20;;;;;;;10.01;92.52;99359.53;1773698;78;21107;-54
2021/04/01 00:06:05;;;;;;;26.05;22.90;;;;;;;9.99;92.63;99363.67;1773814;78;21152;-55
2021/04/01 00:08:32;;;;;;;23.52;20.88;;;;;;;9.98;92.73;99359.86;1777208;79;21193;-56
2021/04/01 00:11:01;;;;;;;26.77;21.87;;;;;;;9.97;92.86;99354.20;1788420;79;20985;-55
2021/04/01 00:13:29;;;;;;;23.73;20.70;;;;;;;9.97;93.00;99347.56;1792790;79;20924;-55
2021/04/01 00:15:58;;;;;;;23.92;21.40;;;;;;;9.96;93.08;99344.06;1785760;79;21065;-55
2021/04/01 00:18:26;;;;;;;27.60;21.52;;;;;;;9.97;93.14;99348.40;1783328;78;21135;-55
2021/04/01 00:20:55;;;;;;;25.95;22.05;;;;;;;9.98;93.17;99341.27;1743751;79;21460;-55
2021/04/01 00:23:25;;;;;;;27.98;21.07;;;;;;;9.98;93.15;99338.61;1773932;79;21160;-55
2021/04/01 00:25:52;;;;;;;25.12;20.72;;;;;;;9.97;93.08;99340.92;1773855;79;21045;-54
2021/04/01 00:28:20;;;;;;;22.65;20.25;;;;;;;9.96;93.15;99336.63;1773937;79;21080;-53
2021/04/01 00:30:48;;;;;;;22.70;20.43;;;;;;;9.96;93.13;99338.75;1773937;79;21081;-56
2021/04/01 00:33:16;;;;;;;26.05;20.80;;;;;;;9.94;93.14;99337.61;1792476;79;21197;-55
2021/04/01 00:35:43;;;;;;;23.95;21.33;;;;;;;9.92;93.17;99327.66;1773661;79;21128;-57
2021/04/01 00:38:11;;;;;;;23.15;19.87;;;;;;;9.90;93.20;99328.33;1773843;79;21072;-55
2021/04/01 00:40:39;;;;;;;23.50;20.12;;;;;;;9.89;93.31;99325.33;1773846;79;21178;-56
2021/04/01 00:43:07;;;;;;;22.82;20.50;;;;;;;9.90;93.34;99327.50;1796345;79;21010;-56
2021/04/01 00:45:34;;;;;;;24.50;21.50;;;;;;;9.88;93.38;99327.65;1773880;79;21144;-54
2021/04/01 00:48:02;;;;;;;23.95;21.23;;;;;;;9.85;93.34;99325.33;1795138;79;21015;-55
2021/04/01 00:50:31;;;;;;;28.30;22.35;;;;;;;9.79;93.14;99323.86;1790060;79;21002;-57
2021/04/01 00:53:00;;;;;;;22.60;20.15;;;;;;;9.74;93.33;99320.39;1777739;79;21156;-54
2021/04/01 00:55:27;;;;;;;24.20;20.72;;;;;;;9.69;93.54;99316.08;1782078;79;21217;-55
2021/04/01 00:57:59;;;;;;;24.05;19.70;;;;;;;9.67;93.74;99315.92;1763208;79;21346;-57
2021/04/01 01:00:30;;;;;;;23.57;20.68;;;;;;;9.64;93.91;99313.59;1747293;78;21063;-53
2021/04/01 01:02:56;;;;;;;22.95;20.37;;;;;;;9.63;94.04;99313.25;1778583;79;21512;-55
2021/04/01 01:05:26;;;;;;;22.20;18.70;;;;;;;9.60;94.04;99303.80;1749998;79;20977;-54
2021/04/01 01:07:53;;;;;;;21.25;18.90;;;;;;;9.57;94.07;99309.96;1747305;79;21577;-54
2021/04/01 01:10:28;;;;;;;22.05;19.48;;;;;;;9.55;94.25;99304.80;1760197;79;21129;-54
2021/04/01 01:12:59;;;;;;;21.37;19.20;;;;;;;9.53;94.46;99301.49;1772772;80;21230;-54
2021/04/01 01:15:29;;;;;;;23.50;19.27;;;;;;;9.53;94.51;99290.87;1786438;79;20926;-54
2021/04/01 01:17:56;;;;;;;23.65;19.27;;;;;;;9.52;94.66;99291.85;1747188;79;21116;-55
2021/04/01 01:20:26;;;;;;;21.85;19.25;;;;;;;9.51;94.75;99291.54;1747224;79;21128;-55
2021/04/01 01:22:55;;;;;;;21.65;19.02;;;;;;;9.52;94.77;99287.03;1757021;79;21208;-54
2021/04/01 01:25:23;;;;;;;22.58;18.07;;;;;;;9.51;94.77;99285.39;1733375;81;21167;-54
2021/04/01 01:27:51;;;;;;;22.82;19.02;;;;;;;9.50;94.76;99281.06;1784638;79;20934;-54
2021/04/01 01:30:20;;;;;;;20.30;18.23;;;;;;;9.49;94.85;99278.91;1749679;79;20919;-54
2021/04/01 01:32:56;;;;;;;20.92;18.73;;;;;;;9.47;94.96;99275.59;1791550;79;21084;-57
2021/04/01 01:35:19;;;;;;;22.10;18.85;;;;;;;9.46;95.14;99267.81;1746413;79;21196;-54
2021/04/01 01:37:57;;;;;;;21.07;17.67;;;;;;;9.44;95.28;99265.83;1747226;79;20997;-55
2021/04/01 01:40:27;;;;;;;22.60;18.62;;;;;;;9.43;95.24;99265.48;1747244;79;21161;-53
2021/04/01 01:43:00;;;;;;;22.00;17.90;;;;;;;9.39;95.19;99257.02;1747230;79;21032;-54
2021/04/01 01:45:28;;;;;;;19.23;17.15;;;;;;;9.36;95.05;99258.67;1747262;79;21115;-53
2021/04/01 01:47:56;;;;;;;19.65;17.70;;;;;;;9.33;94.86;99259.53;1782362;78;21228;-55
2021/04/01 01:50:28;;;;;;;22.52;19.87;;;;;;;9.27;94.80;99261.02;1765542;79;21550;-54
2021/04/01 01:52:56;;;;;;;21.85;19.57;;;;;;;9.21;94.55;99253.22;1795893;79;21194;-53
2021/04/01 01:55:24;;;;;;;25.08;19.48;;;;;;;9.12;94.63;99255.57;1753311;79;21136;-55
2021/04/01 01:57:52;;;;;;;25.08;19.10;;;;;;;9.04;94.86;99248.94;1782842;79;20934;-54
2021/04/01 02:00:30;;;;;;;21.45;18.07;;;;;;;8.95;94.72;99247.75;1782738;79;21419;-56
2021/04/01 02:03:05;;;;;;;22.07;18.95;;;;;;;8.85;94.73;99248.41;1802985;79;21179;-54
2021/04/01 02:05:34;;;;;;;24.72;19.45;;;;;;;8.76;94.79;99252.06;1805368;77;21017;-54
2021/04/01 02:08:05;;;;;;;20.70;18.23;;;;;;;8.65;94.91;99247.41;1782652;79;21195;-56
2021/04/01 02:10:39;;;;;;;22.10;18.48;;;;;;;8.56;95.07;99243.08;1782693;79;21143;-54
2021/04/01 02:13:08;;;;;;;23.52;19.17;;;;;;;8.51;95.34;99236.59;1782867;77;21041;-57
2021/04/01 02:15:38;;;;;;;23.10;19.40;;;;;;;8.43;95.62;99238.74;1782512;79;21037;-54
2021/04/01 02:18:10;;;;;;;21.48;16.85;;;;;;;8.39;95.90;99234.77;1782739;79;21025;-55
2021/04/01 02:20:41;;;;;;;25.35;17.30;;;;;;;8.37;96.17;99227.97;1805215;79;21128;-55
2021/04/01 02:23:17;;;;;;;20.52;18.00;;;;;;;8.33;96.39;99225.30;1782764;79;21084;-53
2021/04/01 02:25:46;;;;;;;19.70;17.55;;;;;;;8.31;96.83;99226.80;1783064;79;21198;-56
2021/04/01 02:28:14;;;;;;;24.20;19.17;;;;;;;8.29;97.01;99226.11;1804572;79;21150;-55
2021/04/01 02:30:44;;;;;;;19.37;17.37;;;;;;;8.26;97.15;99229.07;1810143;79;21021;-55
2021/04/01 02:33:12;;;;;;;23.50;19.48;;;;;;;8.24;97.48;99223.08;1782992;77;21033;-54
2021/04/01 02:35:41;;;;;;;24.27;19.10;;;;;;;8.23;97.84;99227.23;1782730;79;21159;-56
2021/04/01 02:38:08;;;;;;;24.67;18.55;;;;;;;8.24;98.05;99226.25;1782612;77;21190;-54
2021/04/01 02:40:36;;;;;;;25.77;20.23;;;;;;;8.23;98.31;99225.41;1782633;79;21626;-55
2021/04/01 02:43:04;;;;;;;22.50;18.77;;;;;;;8.23;98.44;99224.58;1782625;79;21227;-56
2021/04/01 02:45:32;;;;;;;22.70;19.20;;;;;;;8.21;98.62;99223.42;1782788;79;21491;-54
2021/04/01 02:48:00;;;;;;;23.38;18.82;;;;;;;8.24;98.87;99223.60;1784955;79;20910;-54
2021/04/01 02:50:28;;;;;;;20.90;18.42;;;;;;;8.27;99.11;99217.98;1811483;77;21442;-55
2021/04/01 02:52:56;;;;;;;25.45;19.20;;;;;;;8.28;99.27;99211.21;1808161;78;21108;-54
2021/04/01 02:55:24;;;;;;;21.23;18.12;;;;;;;8.31;99.48;99212.70;1801095;79;21203;-57
2021/04/01 02:57:51;;;;;;;21.52;18.42;;;;;;;8.34;99.51;99214.52;1782502;77;21088;-54
2021/04/01 03:00:23;;;;;;;24.52;19.40;;;;;;;8.35;99.34;99210.89;1790630;79;21037;-55
2021/04/01 03:02:57;;;;;;;25.37;17.85;;;;;;;8.35;99.16;99209.56;1792902;78;21184;-55
2021/04/01 03:05:20;;;;;;;21.50;17.70;;;;;;;8.32;98.88;99211.20;1756121;80;21140;-54
2021/04/01 03:07:47;;;;;;;20.55;17.40;;;;;;;8.32;99.04;99207.72;1785895;79;20969;-54
2021/04/01 03:10:16;;;;;;;18.80;16.70;;;;;;;8.31;99.07;99210.89;1790449;79;21203;-53
2021/04/01 03:12:44;;;;;;;19.42;17.32;;;;;;;8.32;99.33;99211.20;1811658;78;21550;-56
2021/04/01 03:15:34;;;;;;;21.93;17.98;;;;;;;8.35;99.41;99213.54;1789062;77;21384;-54
2021/04/01 03:18:24;;;;;;;19.75;16.62;;;;;;;8.35;99.23;99210.89;1739891;81;21098;-54
2021/04/01 03:20:52;;;;;;;20.15;16.57;;;;;;;8.36;99.46;99208.58;1654277;85;21083;-56
2021/04/01 03:23:20;;;;;;;22.55;17.75;;;;;;;8.38;99.53;99203.94;1657075;84;21137;-54
2021/04/01 03:25:47;;;;;;;19.25;17.00;;;;;;;8.37;99.23;99204.92;1676216;84;21572;-56
2021/04/01 03:28:16;;;;;;;21.30;19.10;;;;;;;8.37;99.08;99204.12;1676239;85;21215;-56
2021/04/01 03:30:50;;;;;;;26.10;20.05;;;;;;;8.35;99.17;99206.08;1676180;85;21077;-53
2021/04/01 03:33:13;;;;;;;20.80;18.00;;;;;;;8.31;98.62;99204.27;1676040;85;20936;-53
2021/04/01 03:35:41;;;;;;;19.95;17.95;;;;;;;8.24;98.42;99203.72;1675968;85;21141;-54
2021/04/01 03:38:10;;;;;;;25.35;18.73;;;;;;;8.20;98.67;99203.70;1675958;84;21129;-57
2021/04/01 03:40:38;;;;;;;24.23;18.87;;;;;;;8.19;99.08;99204.19;1675984;84;21215;-54
2021/04/01 03:43:06;;;;;;;20.27;18.25;;;;;;;8.16;99.16;99203.18;1675938;85;21193;-54
2021/04/01 03:45:34;;;;;;;20.80;18.65;;;;;;;8.13;99.06;99195.58;1675883;85;21133;-54
2021/04/01 03:48:01;;;;;;;25.05;19.52;;;;;;;8.10;99.27;99197.22;1678415;84;21082;-54
2021/04/01 03:50:29;;;;;;;22.22;19.67;;;;;;;8.07;99.36;99193.08;1694658;84;21115;-57
2021/04/01 03:52:57;;;;;;;23.60;20.57;;;;;;;8.06;99.36;99190.57;1675895;85;22043;-55
2021/04/01 03:55:41;;;;;;;21.82;19.52;;;;;;;8.00;98.99;99194.69;1675894;85;21216;-54
2021/04/01 04:13:53;;;;;;;25.45;20.62;;;;;;;7.80;99.93;99184.52;1676058;85;21161;-54
2021/04/01 04:16:17;;;;;;;29.25;20.82;;;;;;;7.91;100.00;99185.56;1676073;84;21197;-56
2021/04/01 04:18:45;;;;;;;24.23;19.30;;;;;;;8.07;100.00;99175.02;1676866;82;21212;-56
2021/04/01 04:21:13;;;;;;;25.68;20.35;;;;;;;8.27;100.00;99169.79;1700415;82;21503;-55
2021/04/01 04:23:45;;;;;;;22.07;19.20;;;;;;;8.48;100.00;99174.62;1699542;84;20950;-54
2021/04/01 04:26:10;;;;;;;22.82;18.85;;;;;;;8.66;99.85;99174.80;1707260;82;20994;-57
2021/04/01 04:28:38;;;;;;;20.08;17.35;;;;;;;8.86;98.98;99169.17;1718174;82;21163;-54
2021/04/01 04:31:07;;;;;;;21.00;18.73;;;;;;;9.03;98.56;99168.15;1699699;83;21438;-56
2021/04/01 04:33:34;;;;;;;24.32;19.27;;;;;;;9.21;98.08;99162.98;1699388;84;21079;-54
2021/04/01 04:36:03;;;;;;;19.07;17.27;;;;;;;9.38;97.24;99158.47;1699510;84;21080;-57
2021/04/01 04:38:31;;;;;;;18.60;16.50;;;;;;;9.56;96.82;99153.77;1700014;82;21001;-56
2021/04/01 04:40:59;;;;;;;19.95;17.60;;;;;;;9.78;96.59;99150.84;1700167;84;21147;-55
2021/04/01 04:43:29;;;;;;;19.70;17.73;;;;;;;10.03;96.05;99148.41;1646163;85;21448;-56
2021/04/01 04:45:57;;;;;;;19.95;18.02;;;;;;;10.25;94.76;99147.63;1665389;84;21264;-53
2021/04/01 04:48:25;;;;;;;19.90;17.87;;;;;;;10.49;93.81;99146.63;1665499;84;21173;-54
2021/04/01 04:50:55;;;;;;;22.02;17.17;;;;;;;10.73;92.31;99145.12;1665481;84;21024;-54
2021/04/01 04:53:23;;;;;;;19.87;17.62;;;;;;;10.96;91.12;99140.58;1665486;84;21561;-54
2021/04/01 04:56:13;;;;;;;20.25;17.98;;;;;;;11.26;90.34;99135.30;1665466;84;21282;-54
2021/04/01 04:58:34;;;;;;;21.90;19.20;;;;;;;11.54;88.90;99134.98;1664597;84;21101;-54
2021/04/01 05:01:12;;;;;;;20.55;17.25;;;;;;;11.83;88.08;99128.82;1665944;85;21628;-57
2021/04/01 05:06:41;;;;;;;19.80;17.50;;;;;;;12.39;85.64;99126.17;1665526;84;21063;-54
2021/04/01 05:08:49;;;;;;;19.45;17.37;;;;;;;12.76;84.30;99120.23;1669163;84;21564;-57
2021/04/01 05:11:16;;;;;;;21.12;16.52;;;;;;;13.04;82.67;99121.08;1665722;84;21158;-58
2021/04/01 05:13:46;;;;;;;19.07;16.57;;;;;;;13.34;81.27;99117.22;1670093;84;21173;-59
2021/04/01 05:16:14;;;;;;;17.35;15.60;;;;;;;13.69;79.96;99113.98;1664993;84;21456;-56
2021/04/01 05:18:41;;;;;;;16.77;15.28;;;;;;;14.02;78.05;99109.62;1665153;84;21111;-55
2021/04/01 05:21:09;;;;;;;17.32;15.63;;;;;;;14.32;76.57;99111.97;1683127;84;21414;-53
2021/04/01 05:23:43;;;;;;;16.70;15.18;;;;;;;14.61;75.00;99105.74;1625471;84;21494;-54
2021/04/01 05:28:43;;;;;;;16.57;14.83;;;;;;;15.24;72.18;99098.08;1677896;84;21088;-57
2021/04/01 05:31:13;;;;;;;16.27;14.70;;;;;;;15.52;70.50;99095.98;1667035;84;21125;-56
2021/04/01 05:33:47;;;;;;;16.52;15.00;;;;;;;15.77;69.02;99092.09;1670097;84;21488;-55
2021/04/01 05:36:23;;;;;;;15.95;14.43;;;;;;;16.01;68.08;99096.19;1671112;84;21563;-54
2021/04/01 05:38:47;;;;;;;15.90;14.50;;;;;;;16.29;66.87;99090.98;1671841;84;21802;-56
2021/04/01 05:41:15;;;;;;;15.40;14.05;;;;;;;16.57;65.79;99092.78;1672621;84;21099;-55
2021/04/01 05:43:48;;;;;;;15.32;13.95;;;;;;;16.84;64.74;99094.75;1667487;84;20945;-54
2021/04/01 05:46:21;;;;;;;14.75;13.43;;;;;;;17.35;62.73;99087.22;1669304;84;21376;-54
2021/04/01 06:00:03;;;;;;;15.23;13.62;;;;;;;18.28;59.01;99092.61;1675414;84;21362;-56
2021/04/01 06:02:22;;;;;;;;;;;;;;;18.42;58.16;99091.38;1673810;84;21115;-55
2021/04/01 06:04:51;;;;;;;16.27;14.78;;;;;;;18.56;57.58;99092.03;1671120;84;20236;-57
2021/04/01 06:07:21;;;;;;;15.38;14.00;;;;;;;18.72;57.25;99084.60;1670754;84;21181;-55
2021/04/01 06:09:50;;;;;;;16.52;15.05;;;;;;;18.88;56.69;99083.10;1673213;84;21032;-56
2021/04/01 06:12:17;;;;;;;16.65;14.85;;;;;;;19.07;55.91;99079.26;1673339;84;21216;-56
2021/04/01 06:15:12;;;;;;;16.07;14.47;;;;;;;19.24;55.43;99077.48;1672336;84;21167;-56
2021/04/01 06:17:46;;;;;;;16.75;14.93;;;;;;;19.40;54.74;99076.80;1673202;84;21167;-55
2021/04/01 06:20:15;;;;;;;16.00;14.63;;;;;;;19.58;54.14;99073.13;1681332;82;21588;-55
2021/04/01 06:22:43;;;;;;;17.77;15.88;;;;;;;19.73;53.66;99068.59;1699387;84;21180;-59
2021/04/01 06:25:15;;;;;;;16.62;15.18;;;;;;;19.81;53.24;99070.92;1700722;83;21195;-56
2021/04/01 06:27:57;;;;;;;18.65;15.63;;;;;;;19.86;52.92;99066.97;1709092;82;21502;-59
2021/04/01 06:30:27;;;;;;;15.28;13.68;;;;;;;19.93;52.64;99063.59;1705305;82;21175;-56
2021/04/01 06:33:04;;;;;;;17.00;15.25;;;;;;;20.01;52.51;99062.69;1703011;82;21174;-56
2021/04/01 06:35:34;;;;;;;16.60;14.85;;;;;;;20.13;52.01;99067.50;1707600;82;21470;-57
2021/04/01 06:40:54;;;;;;;16.23;14.83;;;;;;;20.33;51.65;99067.90;1704358;82;21601;-57
2021/04/01 06:43:49;;;;;;;16.17;14.25;;;;;;;20.52;51.26;99060.40;1710424;82;20937;-61
2021/04/01 06:46:17;;;;;;;21.35;15.23;;;;;;;20.67;50.70;99055.27;1717706;82;21075;-58
2021/04/01 06:54:19;;;;;;;15.63;14.30;;;;;;;20.73;50.61;99054.27;1724508;82;21078;-60
2021/04/01 06:57:15;;;;;;;15.70;14.10;;;;;;;20.98;50.45;99055.74;1724197;82;21063;-57
2021/04/01 06:59:47;;;;;;;17.20;15.28;;;;;;;21.20;49.77;99053.92;1725553;82;20940;-57
2021/04/01 07:02:29;;;;;;;16.25;14.75;;;;;;;21.41;49.76;99043.67;1699842;82;21562;-56
2021/04/01 07:04:59;;;;;;;16.75;15.23;;;;;;;21.60;48.98;99040.95;1705237;82;21210;-61
2021/04/01 07:07:23;;;;;;;17.67;15.80;;;;;;;21.77;48.85;99043.05;1707847;82;21111;-58
2021/04/01 07:10:19;;;;;;;15.48;14.07;;;;;;;21.93;48.57;99038.66;1704442;82;20996;-58
2021/04/01 07:12:44;;;;;;;18.12;14.53;;;;;;;22.09;47.77;99030.45;1731258;82;21126;-59
2021/04/01 07:15:22;;;;;;;15.98;14.40;;;;;;;22.27;47.81;99031.16;1730310;82;20992;-59
2021/04/01 07:17:55;;;;;;;15.40;13.85;;;;;;;22.55;47.26;99024.12;1715826;83;21366;-60
2021/04/01 07:50:25;;;;;;;13.68;12.40;;;;;;;23.93;43.59;98979.33;1832640;78;22771;-58
2021/04/01 07:52:56;;;;;;;15.55;13.32;;;;;;;23.66;43.63;98976.80;1801315;78;20918;-68
2021/04/01 07:55:42;;;;;;;15.18;13.68;;;;;;;23.44;44.05;98979.45;1790332;79;22333;-60
2021/04/01 08:01:01;;;;;;;15.00;12.93;;;;;;;23.41;44.07;98973.19;1777132;79;21053;-61
2021/04/01 08:06:13;;;;;;;13.45;12.23;;;;;;;23.39;44.21;98967.21;1790030;79;20982;-59
2021/04/01 08:08:46;;;;;;;13.43;11.53;;;;;;;23.47;44.06;98966.14;1711959;82;21377;-63
2021/04/01 08:11:29;;;;;;;12.25;11.10;;;;;;;23.58;43.98;98962.92;1719006;82;20950;-58
2021/04/01 08:14:15;;;;;;;11.50;10.40;;;;;;;23.77;43.75;98961.36;1717127;82;21025;-59
2021/04/01 08:17:00;;;;;;;12.80;11.10;;;;;;;23.97;43.36;98964.11;1745922;81;21083;-60
2021/04/01 08:19:28;;;;;;;11.10;10.10;;;;;;;24.28;42.74;98953.58;1714899;82;20954;-65
2021/04/01 08:21:58;;;;;;;14.47;10.48;;;;;;;24.54;42.34;98953.84;1727384;82;21869;-60
2021/04/01 08:24:33;;;;;;;11.00;9.93;;;;;;;24.78;41.85;98958.20;1716373;82;21001;-61
2021/04/01 08:33:21;;;;;;;11.93;10.10;;;;;;;24.96;40.41;98941.83;1793194;79;21060;-58
2021/04/01 08:35:43;;;;;;;14.60;9.30;;;;;;;24.74;40.24;98946.19;1783870;79;21374;-58
2021/04/01 08:38:16;;;;;;;11.10;9.90;;;;;;;24.44;40.36;98944.34;1787165;79;21606;-59
2021/04/01 08:40:45;;;;;;;11.45;9.03;;;;;;;24.21;40.52;98944.06;1790453;79;21040;-56
2021/04/01 08:43:37;;;;;;;10.20;9.23;;;;;;;23.96;40.62;98946.16;1793211;79;20970;-58
2021/04/01 08:46:49;;;;;;;10.18;9.18;;;;;;;23.89;40.68;98942.91;1786866;79;21401;-60
2021/04/01 08:50:28;;;;;;;11.03;8.83;;;;;;;23.95;40.67;98934.51;1789392;79;21184;-59
2021/04/01 08:53:18;;;;;;;10.38;9.48;;;;;;;24.21;40.54;98924.50;1792641;79;21007;-58
2021/04/01 08:56:24;;;;;;;11.22;10.30;;;;;;;24.58;40.18;98930.19;1797992;77;21005;-58
2021/04/01 08:59:24;;;;;;;13.00;9.83;;;;;;;24.79;39.76;98930.45;1792795;79;20879;-58
2021/04/01 09:01:55;;;;;;;13.05;9.33;;;;;;;24.65;39.50;98930.71;1751723;80;21173;-58
2021/04/01 09:04:32;;;;;;;12.75;9.28;;;;;;;24.38;39.94;98925.03;1755368;80;21349;-61
2021/04/01 09:07:08;;;;;;;11.20;8.83;;;;;;;24.34;40.14;98917.16;1771159;79;21132;-58
2021/04/01 09:09:38;;;;;;;;;;;;;;;24.42;40.08;98915.26;1794318;79;20997;-58
2021/04/01 09:12:17;;;;;;;9.60;8.60;;;;;;;24.62;39.78;98911.68;1791067;79;20268;-58
2021/04/01 09:14:49;;;;;;;13.65;8.33;;;;;;;24.80;39.61;98903.51;1794466;79;21602;-60
2021/04/01 09:17:16;;;;;;;10.68;8.78;;;;;;;25.00;39.09;98893.95;1778153;79;22001;-61
2021/04/01 09:19:45;;;;;;;9.55;8.58;;;;;;;25.08;38.72;98890.66;1771770;79;21045;-58
2021/04/01 09:22:21;;;;;;;9.48;8.70;;;;;;;25.13;38.39;98888.70;1779191;79;21106;-58
2021/04/01 09:25:03;;;;;;;12.85;10.00;;;;;;;25.21;38.19;98882.43;1776916;79;21116;-59
2021/04/01 09:27:31;;;;;;;9.80;8.93;;;;;;;25.28;38.06;98888.37;1780462;79;21152;-58
2021/04/01 09:30:08;;;;;;;12.37;8.18;;;;;;;25.38;38.05;98882.88;1767726;79;21467;-58
2021/04/01 09:32:39;;;;;;;14.23;8.28;;;;;;;25.49;37.31;98877.14;1773879;78;21164;-58
2021/04/01 09:35:08;;;;;;;11.55;7.60;;;;;;;25.44;36.63;98874.95;1783251;79;21116;-58
2021/04/01 09:37:35;;;;;;;10.10;8.65;;;;;;;25.29;36.90;98869.03;1770478;79;21654;-57
2021/04/01 09:40:11;;;;;;;9.75;8.55;;;;;;;25.24;36.90;98866.33;1775800;78;21052;-58
2021/04/01 09:42:43;;;;;;;8.90;7.60;;;;;;;25.20;37.00;98863.10;1778329;78;21211;-57
2021/04/01 09:45:14;;;;;;;9.10;8.10;;;;;;;25.12;36.90;98856.34;1774579;79;21054;-57
2021/04/01 09:47:52;;;;;;;8.68;7.87;;;;;;;24.89;37.31;98860.52;1770481;78;21186;-57
2021/04/01 09:50:21;;;;;;;11.88;8.30;;;;;;;24.69;37.38;98857.81;1754654;79;21057;-57
2021/04/01 09:53:10;;;;;;;10.20;9.05;;;;;;;24.48;37.75;98854.90;1768703;79;21136;-57
2021/04/01 09:55:39;;;;;;;11.12;7.97;;;;;;;24.40;37.86;98850.81;1808054;78;21563;-60
2021/04/01 09:58:34;;;;;;;11.05;8.58;;;;;;;24.30;37.59;98845.96;1770084;78;21175;-58
2021/04/01 10:01:33;;;;;;;9.38;8.35;;;;;;;24.16;37.90;98849.78;1759893;79;20938;-59
2021/04/01 10:04:19;;;;;;;8.43;7.72;;;;;;;24.09;37.71;98847.06;1774393;79;21041;-59
2021/04/01 10:06:51;;;;;;;10.90;8.18;;;;;;;24.04;37.76;98842.39;1772434;79;21097;-59
2021/04/01 10:09:24;;;;;;;8.20;7.45;;;;;;;23.98;38.07;98841.33;1770483;79;22255;-58
2021/04/01 10:12:00;;;;;;;10.55;8.48;;;;;;;23.97;38.69;98836.43;1767440;79;21171;-61
2021/04/01 10:14:28;;;;;;;8.83;7.72;;;;;;;24.09;38.60;98828.84;1781978;79;21124;-58
2021/04/01 10:17:06;;;;;;;10.28;7.53;;;;;;;24.16;37.99;98823.96;1771967;79;21118;-58
2021/04/01 10:19:40;;;;;;;8.75;7.78;;;;;;;24.12;37.10;98828.30;1784542;79;21611;-58
2021/04/01 10:22:20;;;;;;;9.88;7.80;;;;;;;24.07;37.57;98825.55;1766408;79;21213;-58
2021/04/01 10:25:24;;;;;;;8.30;7.50;;;;;;;24.16;37.43;98815.81;1772356;79;21586;-57
2021/04/01 10:28:00;;;;;;;9.43;7.97;;;;;;;24.28;37.63;98805.45;1780204;79;20918;-57
2021/04/01 10:30:33;;;;;;;8.93;8.23;;;;;;;24.51;37.15;98797.23;1771953;78;21017;-59
2021/04/01 10:33:08;;;;;;;9.13;8.30;;;;;;;24.62;36.51;98799.38;1784641;79;21363;-59
2021/04/01 10:35:36;;;;;;;9.43;7.12;;;;;;;24.69;36.75;98789.03;1774496;79;21369;-57
2021/04/01 10:38:04;;;;;;;14.25;7.80;;;;;;;24.81;36.57;98782.20;1774288;79;21030;-58
2021/04/01 10:40:33;;;;;;;8.18;7.35;;;;;;;24.87;35.30;98780.28;1782351;79;20975;-57
2021/04/01 10:43:09;;;;;;;7.72;6.92;;;;;;;24.77;35.40;98778.94;1768173;79;20978;-56
2021/04/01 10:45:39;;;;;;;8.33;7.53;;;;;;;24.68;35.00;98776.52;1782031;79;21562;-64
2021/04/01 10:48:23;;;;;;;8.85;7.50;;;;;;;24.55;34.93;98770.59;1789365;79;21539;-60
2021/04/01 10:50:53;;;;;;;8.60;7.83;;;;;;;24.52;34.74;98767.61;1774904;79;21110;-60
2021/04/01 10:53:23;;;;;;;6.92;6.25;;;;;;;24.40;34.81;98766.54;1787149;79;22518;-60
2021/04/01 10:55:52;;;;;;;8.43;7.62;;;;;;;24.33;34.95;98757.05;1774555;78;21098;-60
2021/04/01 10:58:20;;;;;;;9.20;8.33;;;;;;;24.37;34.80;98752.17;1772072;78;21159;-59
2021/04/01 11:00:55;;;;;;;9.68;8.70;;;;;;;24.41;34.80;98748.33;1768015;79;21242;-61
2021/04/01 11:03:28;;;;;;;9.35;8.28;;;;;;;24.35;34.76;98748.10;1765518;79;21633;-59
2021/04/01 11:05:55;;;;;;;10.10;8.40;;;;;;;24.23;34.92;98742.14;1770850;79;20994;-63
2021/04/01 11:08:24;;;;;;;8.05;7.25;;;;;;;24.13;35.12;98742.17;1765310;79;21091;-60
2021/04/01 11:11:00;;;;;;;8.93;8.13;;;;;;;24.06;35.58;98733.47;1769696;79;21117;-62
2021/04/01 11:13:34;;;;;;;8.10;7.40;;;;;;;24.02;35.40;98735.91;1765372;79;21479;-63
2021/04/01 11:16:04;;;;;;;9.13;8.05;;;;;;;23.93;35.29;98727.50;1770878;79;21045;-59
2021/04/01 11:18:32;;;;;;;10.82;7.62;;;;;;;23.81;35.24;98737.03;1773200;79;20919;-59
2021/04/01 11:21:01;;;;;;;10.90;8.28;;;;;;;23.71;35.50;98727.54;1784735;79;21598;-63
2021/04/01 11:23:29;;;;;;;9.38;6.75;;;;;;;23.67;35.50;98733.26;1767867;79;21226;-59
2021/04/01 11:25:58;;;;;;;7.60;6.83;;;;;;;23.62;35.17;98723.19;1764436;79;21827;-62
2021/04/01 11:28:38;;;;;;;7.90;7.20;;;;;;;23.59;35.07;98715.62;1767799;79;21242;-59
2021/04/01 11:31:08;;;;;;;9.15;6.83;;;;;;;23.64;34.73;98710.19;1789015;79;21634;-61
2021/04/01 11:33:37;;;;;;;8.70;5.95;;;;;;;23.69;34.63;98708.82;1788057;79;21033;-61
2021/04/01 11:36:12;;;;;;;9.73;6.17;;;;;;;23.75;34.52;98705.56;1785353;79;21159;-59
2021/04/01 11:38:57;;;;;;;6.70;6.10;;;;;;;23.76;34.38;98690.34;1797042;77;21509;-58
2021/04/01 11:41:27;;;;;;;8.18;6.87;;;;;;;23.69;34.10;98688.45;1791369;79;21361;-57
2021/04/01 11:43:56;;;;;;;7.05;6.35;;;;;;;23.48;34.54;98691.45;1784982;78;21076;-58
2021/04/01 11:46:27;;;;;;;6.55;5.95;;;;;;;23.38;34.61;98686.03;1789997;79;20997;-58
2021/04/01 11:48:56;;;;;;;7.37;6.62;;;;;;;23.25;34.76;98685.47;1795746;79;21210;-58
2021/04/01 11:51:29;;;;;;;7.20;6.50;;;;;;;23.07;34.96;98681.90;1802712;79;21370;-57
2021/04/01 11:53:57;;;;;;;6.85;6.25;;;;;;;22.95;35.45;98673.75;1795582;77;21101;-57
2021/04/01 11:56:47;;;;;;;7.85;6.78;;;;;;;22.89;35.54;98668.86;1790219;79;21067;-58
2021/04/01 11:59:19;;;;;;;12.25;7.00;;;;;;;22.83;35.63;98660.47;1758368;80;21024;-57
2021/04/01 12:01:59;;;;;;;7.10;5.75;;;;;;;22.75;35.55;98656.92;1785575;79;21160;-57
2021/04/01 12:04:27;;;;;;;7.22;6.20;;;;;;;22.70;35.64;98652.84;1798127;79;22333;-58
2021/04/01 12:06:54;;;;;;;7.05;5.40;;;;;;;22.69;35.63;98648.50;1794002;77;21514;-59
2021/04/01 12:09:21;;;;;;;9.05;6.15;;;;;;;22.67;35.83;98647.42;1793270;79;21652;-57
2021/04/01 12:11:49;;;;;;;8.55;6.45;;;;;;;22.75;35.71;98642.02;1782753;79;21586;-58
2021/04/01 12:14:17;;;;;;;7.42;6.75;;;;;;;22.80;35.44;98641.20;1789155;79;21111;-58
2021/04/01 12:16:45;;;;;;;7.25;6.55;;;;;;;22.77;35.36;98633.59;1781752;79;21897;-58
2021/04/01 12:19:13;;;;;;;7.85;6.30;;;;;;;22.69;35.51;98634.41;1782593;79;20985;-58
2021/04/01 12:21:41;;;;;;;9.00;6.15;;;;;;;22.61;35.65;98624.59;1795869;79;21039;-57
2021/04/01 12:24:10;;;;;;;5.80;5.30;;;;;;;22.50;35.77;98625.67;1783660;79;20989;-59
2021/04/01 12:26:49;;;;;;;6.05;5.53;;;;;;;22.40;35.78;98617.50;1808273;79;20953;-61
2021/04/01 12:29:17;;;;;;;7.37;6.15;;;;;;;22.33;35.90;98620.47;1799122;78;22378;-59
2021/04/01 12:31:51;;;;;;;6.45;5.95;;;;;;;22.25;35.58;98607.44;1756837;79;21607;-59
2021/04/01 12:34:26;;;;;;;6.25;5.75;;;;;;;22.16;35.71;98612.30;1760842;79;20997;-57
2021/04/01 12:36:53;;;;;;;6.12;5.53;;;;;;;22.04;35.85;98610.62;1765705;79;21496;-59
2021/04/01 12:39:34;;;;;;;5.60;5.10;;;;;;;21.94;35.97;98608.41;1765551;79;21065;-58
2021/04/01 12:42:03;;;;;;;7.55;4.95;;;;;;;21.83;35.94;98600.74;1765646;79;21418;-58
2021/04/01 12:44:40;;;;;;;5.45;4.92;;;;;;;21.74;35.95;98587.98;1788897;79;20998;-59
2021/04/01 12:47:08;;;;;;;6.50;5.17;;;;;;;21.70;35.82;98588.22;1795221;79;20980;-58
2021/04/01 12:49:36;;;;;;;6.30;5.20;;;;;;;21.65;36.09;98584.13;1760421;79;21175;-58
2021/04/01 12:52:26;;;;;;;6.97;5.53;;;;;;;21.62;36.28;98585.47;1776901;79;21180;-58
2021/04/01 12:54:54;;;;;;;7.35;5.10;;;;;;;21.66;36.05;98581.72;1664886;84;21401;-59
2021/04/01 12:57:24;;;;;;;8.18;5.70;;;;;;;21.65;35.96;98574.66;1662842;84;21192;-59
2021/04/01 12:59:56;;;;;;;6.28;5.67;;;;;;;21.62;35.84;98568.41;1661164;86;21017;-58
2021/04/01 13:02:25;;;;;;;5.60;4.87;;;;;;;21.56;35.97;98565.42;1665050;84;21618;-60
2021/04/01 13:04:58;;;;;;;5.85;5.30;;;;;;;21.48;35.75;98551.86;1663742;86;21049;-58
2021/04/01 13:10:10;;;;;;;6.42;5.15;;;;;;;21.34;35.93;98552.04;1664730;86;21033;-57
2021/04/01 13:12:24;;;;;;;8.08;6.00;;;;;;;21.29;36.03;98541.19;1664904;84;21187;-59
2021/04/01 13:14:51;;;;;;;5.53;5.03;;;;;;;21.19;36.13;98535.73;1664821;86;21013;-57